createdAt,value
2022-10-16T00:00:50.830Z,57.09
2022-10-16T00:01:50.783Z,49.16
2022-10-16T00:02:50.833Z,56.07
2022-10-16T00:03:50.760Z,55.27
2022-10-16T00:04:50.806Z,46.07
2022-10-16T00:05:50.754Z,56.45
2022-10-16T00:06:50.736Z,50.70
2022-10-16T00:07:50.795Z,52.19
2022-10-16T00:08:50.694Z,47.56
2022-10-16T00:09:50.763Z,47.54
2022-10-16T00:10:50.703Z,50.56
2022-10-16T00:11:50.785Z,46.43
2022-10-16T00:12:50.707Z,49.25
2022-10-16T00:13:50.714Z,59.57
2022-10-16T00:14:50.712Z,50.46
2022-10-16T00:15:50.655Z,51.37
2022-10-16T00:16:50.667Z,50.87
2022-10-16T00:17:50.650Z,50.24
2022-10-16T00:18:50.631Z,52.93
2022-10-16T00:19:50.639Z,49.57
2022-10-16T00:20:50.663Z,54.31
2022-10-16T00:21:50.631Z,53.73
2022-10-16T00:22:50.596Z,52.55
2022-10-16T00:23:50.626Z,49.86
2022-10-16T00:24:50.597Z,51.05
2022-10-16T00:25:50.593Z,45.52
2022-10-16T00:26:50.595Z,55.73
2022-10-16T00:27:50.602Z,45.59
2022-10-16T00:28:50.642Z,46.32
2022-10-16T00:29:50.620Z,55.25
2022-10-16T00:30:50.548Z,50.02
2022-10-16T00:31:50.592Z,52.59
2022-10-16T00:32:50.600Z,53.02
2022-10-16T00:33:50.564Z,54.35
2022-10-16T00:34:50.547Z,45.36
2022-10-16T00:35:50.515Z,51.64
2022-10-16T00:36:50.531Z,56.93
2022-10-16T00:37:50.525Z,55.06
2022-10-16T00:38:50.522Z,52.81
2022-10-16T00:39:50.485Z,51.44
2022-10-16T00:40:50.533Z,47.69
2022-10-16T00:41:50.497Z,51.59
2022-10-16T00:42:50.477Z,57.66
2022-10-16T00:43:50.486Z,52.19
2022-10-16T00:44:50.463Z,48.92
2022-10-16T00:45:50.455Z,51.75
2022-10-16T00:46:50.450Z,50.21
2022-10-16T00:47:50.428Z,60.94
2022-10-16T00:48:50.458Z,45.75
2022-10-16T00:49:50.509Z,50.49
2022-10-16T00:50:50.408Z,50.71
2022-10-16T00:51:50.387Z,54.27
2022-10-16T00:52:50.390Z,48.80
2022-10-16T00:53:50.378Z,46.94
2022-10-16T00:54:50.385Z,45.46
2022-10-16T00:55:50.399Z,49.79
2022-10-16T00:56:50.396Z,50.10
2022-10-16T00:57:50.373Z,54.28
2022-10-16T00:58:50.336Z,54.80
2022-10-16T00:59:50.335Z,45.06
2022-10-16T01:00:50.415Z,48.72
2022-10-16T01:01:50.325Z,47.53
2022-10-16T01:02:50.343Z,48.94
2022-10-16T01:03:50.306Z,50.88
2022-10-16T01:04:50.294Z,52.02
2022-10-16T01:05:50.308Z,56.10
2022-10-16T01:06:50.338Z,50.57
2022-10-16T01:07:50.258Z,44.92
2022-10-16T01:08:50.289Z,55.41
2022-10-16T01:09:50.249Z,45.73
2022-10-16T01:10:50.261Z,54.68
2022-10-16T01:11:50.269Z,57.48
2022-10-16T01:12:50.244Z,53.48
2022-10-16T01:13:50.222Z,55.74
2022-10-16T01:14:50.209Z,55.02
2022-10-16T01:15:50.216Z,51.97
2022-10-16T01:16:50.194Z,46.62
2022-10-16T01:17:50.202Z,54.48
2022-10-16T01:18:50.221Z,56.60
2022-10-16T01:19:50.189Z,50.36
2022-10-16T01:20:50.154Z,51.99
2022-10-16T01:21:50.161Z,49.29
2022-10-16T01:22:50.194Z,54.53
2022-10-16T01:23:50.192Z,45.50
2022-10-16T01:24:50.176Z,56.71
2022-10-16T01:25:50.137Z,45.58
2022-10-16T01:26:50.160Z,45.21
2022-10-16T01:27:50.084Z,49.09
2022-10-16T01:28:50.178Z,55.50
2022-10-16T01:29:50.115Z,48.57
2022-10-16T01:30:50.088Z,56.11
2022-10-16T01:31:50.116Z,48.65
2022-10-16T01:32:50.125Z,44.90
2022-10-16T01:33:50.158Z,46.24
2022-10-16T01:34:50.085Z,56.49
2022-10-16T01:35:51.059Z,56.40
2022-10-16T01:36:50.046Z,49.45
2022-10-16T01:37:50.054Z,44.95
2022-10-16T01:38:50.045Z,45.26
2022-10-16T01:39:50.053Z,56.05
2022-10-16T01:40:50.056Z,57.08
2022-10-16T01:41:50.040Z,51.28
2022-10-16T01:42:50.112Z,52.63
2022-10-16T01:43:50.036Z,45.56
2022-10-16T01:44:50.028Z,48.92
2022-10-16T02:24:24.280Z,45.60
2022-10-16T02:25:24.270Z,52.39
2022-10-16T02:26:24.276Z,47.40
2022-10-16T02:27:24.266Z,49.18
2022-10-16T02:28:25.243Z,45.03
2022-10-16T02:29:24.262Z,45.02
2022-10-16T02:30:24.272Z,52.64
2022-10-16T02:31:24.266Z,51.60
2022-10-16T02:32:24.540Z,46.64
2022-10-16T02:33:24.231Z,46.76
2022-10-16T02:34:24.236Z,52.98
2022-10-16T02:35:24.262Z,50.34
2022-10-16T02:36:24.198Z,51.55
2022-10-16T02:37:24.185Z,44.93
2022-10-16T02:38:24.178Z,54.30
2022-10-16T02:39:24.205Z,51.27
2022-10-16T02:40:25.573Z,55.52
2022-10-16T02:41:57.606Z,45.09
2022-10-16T02:42:58.133Z,60.43
2022-10-16T02:43:56.647Z,44.89
2022-10-16T02:44:24.259Z,45.03
2022-10-16T02:45:58.174Z,52.28
2022-10-16T02:46:24.112Z,53.70
2022-10-16T02:47:24.094Z,49.79
2022-10-16T02:48:24.126Z,44.93
2022-10-16T02:49:24.097Z,44.85
2022-10-16T02:50:24.084Z,45.23
2022-10-16T02:51:24.107Z,51.78
2022-10-16T02:52:24.330Z,44.99
2022-10-16T02:53:24.086Z,50.65
2022-10-16T02:54:24.086Z,47.54
2022-10-16T02:55:24.059Z,45.61
2022-10-16T02:56:24.044Z,44.87
2022-10-16T02:57:24.517Z,45.12
2022-10-16T02:58:24.043Z,44.94
2022-10-16T02:59:24.066Z,44.82
2022-10-16T03:00:24.033Z,44.96
2022-10-16T03:01:24.084Z,49.32
2022-10-16T03:02:24.016Z,51.34
2022-10-16T03:03:24.042Z,46.60
2022-10-16T03:04:24.032Z,48.81
2022-10-16T03:05:23.989Z,45.15
2022-10-16T03:06:23.990Z,46.82
2022-10-16T03:07:24.399Z,52.12
2022-10-16T03:08:23.955Z,49.27
2022-10-16T03:09:23.956Z,51.16
2022-10-16T03:10:23.957Z,51.25
2022-10-16T03:11:23.956Z,44.81
2022-10-16T03:12:23.904Z,44.84
2022-10-16T03:13:23.893Z,51.45
2022-10-16T03:14:23.949Z,47.76
2022-10-16T03:15:23.927Z,45.37
2022-10-16T03:16:23.908Z,45.06
2022-10-16T03:17:24.143Z,49.99
2022-10-16T03:18:23.880Z,48.88
2022-10-16T03:19:23.851Z,45.79
2022-10-16T03:20:23.871Z,52.25
2022-10-16T03:21:24.895Z,45.42
2022-10-16T03:22:23.855Z,51.89
2022-10-16T03:23:23.899Z,47.69
2022-10-16T03:24:23.812Z,49.88
2022-10-16T03:25:23.819Z,45.83
2022-10-16T03:26:23.804Z,44.97
2022-10-16T03:27:24.207Z,44.98
2022-10-16T03:28:23.857Z,44.90
2022-10-16T03:29:23.805Z,50.02
2022-10-16T03:30:23.769Z,46.66
2022-10-16T03:31:23.756Z,50.95
2022-10-16T03:32:23.835Z,46.45
2022-10-16T03:33:23.748Z,47.84
2022-10-16T03:34:23.779Z,50.79
2022-10-16T03:35:23.783Z,53.00
2022-10-16T03:36:23.718Z,45.52
2022-10-16T03:37:24.150Z,45.84
2022-10-16T03:38:23.732Z,53.20
2022-10-16T03:39:23.725Z,45.00
2022-10-16T03:40:23.745Z,44.83
2022-10-16T03:41:23.688Z,45.17
2022-10-16T03:42:23.674Z,50.61
2022-10-16T03:43:23.695Z,45.17
2022-10-16T03:44:23.671Z,46.19
2022-10-16T03:45:23.689Z,50.37
2022-10-16T03:46:24.276Z,46.15
2022-10-16T04:03:41.581Z,50.67
2022-10-16T04:04:42.688Z,46.76
2022-10-16T04:05:42.731Z,51.75
2022-10-16T04:06:42.720Z,51.45
2022-10-16T04:07:42.717Z,51.71
2022-10-16T04:08:42.717Z,56.68
2022-10-16T04:09:42.712Z,46.90
2022-10-16T04:10:42.678Z,47.10
2022-10-16T04:11:42.676Z,45.89
2022-10-16T04:12:42.708Z,44.89
2022-10-16T04:13:43.384Z,57.35
2022-10-16T04:14:42.623Z,44.90
2022-10-16T04:15:42.627Z,51.21
2022-10-16T04:16:42.666Z,45.51
2022-10-16T04:17:42.649Z,54.84
2022-10-16T04:18:42.645Z,56.18
2022-10-16T04:19:42.627Z,57.33
2022-10-16T04:20:42.612Z,48.71
2022-10-16T04:21:42.575Z,46.63
2022-10-16T04:22:43.334Z,45.27
2022-10-16T04:23:42.629Z,44.65
2022-10-16T04:24:42.583Z,49.27
2022-10-16T04:25:42.587Z,52.81
2022-10-16T04:26:42.574Z,50.16
2022-10-16T04:27:45.978Z,53.39
2022-10-16T04:28:43.573Z,54.96
2022-10-16T04:29:42.552Z,52.16
2022-10-16T04:30:42.575Z,51.75
2022-10-16T04:31:43.374Z,45.49
2022-10-16T04:32:42.529Z,45.29
2022-10-16T04:33:42.550Z,54.53
2022-10-16T04:34:43.336Z,54.89
2022-10-16T04:35:42.521Z,50.21
2022-10-16T04:36:42.536Z,56.05
2022-10-16T04:37:42.491Z,46.58
2022-10-16T04:38:42.487Z,53.02
2022-10-16T04:39:42.463Z,53.84
2022-10-16T04:40:42.751Z,52.61
2022-10-16T04:41:42.430Z,45.28
2022-10-16T04:42:42.474Z,52.21
2022-10-16T04:43:42.435Z,47.85
2022-10-16T04:44:42.482Z,48.79
2022-10-16T04:45:42.439Z,55.06
2022-10-16T04:46:42.420Z,45.11
2022-10-16T04:47:42.405Z,49.79
2022-10-16T04:48:42.381Z,45.24
2022-10-16T04:49:42.406Z,50.91
2022-10-16T04:50:42.369Z,53.96
2022-10-16T04:51:42.461Z,52.90
2022-10-16T04:52:42.388Z,58.74
2022-10-16T04:53:42.409Z,59.10
2022-10-16T04:54:42.326Z,57.00
2022-10-16T04:55:42.378Z,54.45
2022-10-16T04:56:42.371Z,59.72
2022-10-16T04:57:42.329Z,60.03
2022-10-16T04:58:42.357Z,53.87
2022-10-16T04:59:42.318Z,46.01
2022-10-16T05:00:42.300Z,54.54
2022-10-16T05:01:42.306Z,44.92
2022-10-16T05:02:42.349Z,45.00
2022-10-16T05:03:42.324Z,44.89
2022-10-16T05:04:42.247Z,50.06
2022-10-16T05:05:42.256Z,46.54
2022-10-16T05:06:42.289Z,51.37
2022-10-16T05:07:42.235Z,56.29
2022-10-16T05:08:42.250Z,57.92
2022-10-16T05:09:42.324Z,47.96
2022-10-16T05:10:42.222Z,46.78
2022-10-16T05:11:42.214Z,47.23
2022-10-16T05:12:42.224Z,49.30
2022-10-16T05:13:42.208Z,50.07
2022-10-16T05:14:42.195Z,50.88
2022-10-16T05:15:42.196Z,48.06
2022-10-16T05:16:42.157Z,45.04
2022-10-16T05:17:44.654Z,54.14
2022-10-16T05:18:42.162Z,45.58
2022-10-16T05:19:42.158Z,50.24
2022-10-16T05:20:42.144Z,47.01
2022-10-16T05:21:42.145Z,52.34
2022-10-16T05:22:42.137Z,50.61
2022-10-16T05:23:42.146Z,50.11
2022-10-16T05:24:42.129Z,47.83
2022-10-16T05:25:42.128Z,52.86
2022-10-16T05:26:42.109Z,51.39
2022-10-16T05:27:42.102Z,48.46
2022-10-16T05:28:42.113Z,48.11
2022-10-16T05:29:42.118Z,51.98
2022-10-16T05:30:42.063Z,52.06
2022-10-16T05:31:42.085Z,50.50
2022-10-16T05:32:42.823Z,49.26
2022-10-16T05:33:42.094Z,45.01
2022-10-16T05:34:42.061Z,50.29
2022-10-16T05:35:42.017Z,52.58
2022-10-16T05:36:42.955Z,48.17
2022-10-16T05:37:42.066Z,53.94
2022-10-16T05:38:41.994Z,46.18
2022-10-16T05:39:43.010Z,55.17
2022-10-16T05:40:41.971Z,51.06
2022-10-16T05:41:41.996Z,45.36
2022-10-16T05:42:42.022Z,54.32
2022-10-16T05:43:41.971Z,45.59
2022-10-16T05:44:41.968Z,52.24
2022-10-16T05:45:42.909Z,53.41
2022-10-16T05:46:41.942Z,64.59
2022-10-16T05:47:41.950Z,57.28
2022-10-16T05:48:41.943Z,48.97
2022-10-16T05:49:41.926Z,47.76
2022-10-16T05:50:41.936Z,50.12
2022-10-16T05:51:41.925Z,54.16
2022-10-16T05:52:41.897Z,55.88
2022-10-16T05:53:41.893Z,51.55
2022-10-16T05:54:41.890Z,50.01
2022-10-16T05:55:41.881Z,50.00
2022-10-16T05:56:41.884Z,48.79
2022-10-16T05:57:41.845Z,46.83
2022-10-16T05:58:41.832Z,51.50
2022-10-16T05:59:41.874Z,57.78
2022-10-16T06:00:41.822Z,53.61
2022-10-16T06:01:41.877Z,60.68
2022-10-16T06:02:41.802Z,55.88
2022-10-16T06:04:15.775Z,46.10
2022-10-16T06:04:41.772Z,61.50
2022-10-16T06:05:41.784Z,56.68
2022-10-16T06:06:41.834Z,58.79
2022-10-16T06:07:41.774Z,50.35
2022-10-16T06:08:41.760Z,50.85
2022-10-16T06:09:41.753Z,46.46
2022-10-16T06:10:41.725Z,48.77
2022-10-16T06:11:41.766Z,50.11
2022-10-16T06:12:41.738Z,50.02
2022-10-16T06:13:41.721Z,57.31
2022-10-16T06:14:41.736Z,55.15
2022-10-16T06:15:41.719Z,52.50
2022-10-16T06:16:41.717Z,45.75
2022-10-16T06:17:41.761Z,59.48
2022-10-16T06:18:41.692Z,56.51
2022-10-16T06:19:41.673Z,51.13
2022-10-16T06:20:41.701Z,50.72
2022-10-16T06:21:41.702Z,48.79
2022-10-16T06:22:41.672Z,53.88
2022-10-16T06:23:41.714Z,55.96
2022-10-16T06:24:41.656Z,60.73
2022-10-16T06:25:41.618Z,55.19
2022-10-16T06:26:41.649Z,50.67
2022-10-16T06:27:41.630Z,59.15
2022-10-16T06:28:41.697Z,50.96
2022-10-16T06:29:41.591Z,51.37
2022-10-16T06:30:41.622Z,47.35
2022-10-16T06:31:41.578Z,58.74
2022-10-16T06:32:41.582Z,52.72
2022-10-16T06:33:41.653Z,61.64
2022-10-16T06:34:43.371Z,57.01
2022-10-16T06:35:41.546Z,59.39
2022-10-16T06:36:41.549Z,53.60
2022-10-16T06:37:41.561Z,61.77
2022-10-16T06:38:41.540Z,58.33
2022-10-16T06:39:41.560Z,47.98
2022-10-16T06:40:41.504Z,49.50
2022-10-16T06:41:41.486Z,50.80
2022-10-16T06:42:41.484Z,65.10
2022-10-16T06:43:41.505Z,54.25
2022-10-16T06:44:41.492Z,60.90
2022-10-16T06:45:41.479Z,55.84
2022-10-16T06:46:41.464Z,55.31
2022-10-16T06:47:41.499Z,63.74
2022-10-16T06:48:41.466Z,58.40
2022-10-16T06:49:41.485Z,59.15
2022-10-16T06:50:41.424Z,57.39
2022-10-16T06:51:43.133Z,57.77
2022-10-16T06:52:41.430Z,55.82
2022-10-16T06:54:01.230Z,51.76
2022-10-16T06:54:43.454Z,47.85
2022-10-16T06:55:41.446Z,63.88
2022-10-16T06:56:41.394Z,54.45
2022-10-16T06:57:41.397Z,57.69
2022-10-16T06:58:41.367Z,55.61
2022-10-16T06:59:45.126Z,61.32
2022-10-16T07:00:42.371Z,53.36
2022-10-16T07:01:41.406Z,51.77
2022-10-16T07:02:41.352Z,55.80
2022-10-16T07:03:41.348Z,55.89
2022-10-16T07:04:41.355Z,49.47
2022-10-16T07:05:41.332Z,56.05
2022-10-16T07:06:41.346Z,51.91
2022-10-16T07:07:41.306Z,59.92
2022-10-16T07:08:41.293Z,57.95
2022-10-16T07:09:41.276Z,58.76
2022-10-16T07:10:41.264Z,55.99
2022-10-16T07:11:41.284Z,67.18
2022-10-16T07:12:41.259Z,55.19
2022-10-16T07:13:42.291Z,50.34
2022-10-16T07:14:41.270Z,60.06
2022-10-16T07:15:41.257Z,60.88
2022-10-16T07:16:41.245Z,49.75
2022-10-16T07:17:41.240Z,62.18
2022-10-16T07:18:41.243Z,56.29
2022-10-16T07:19:41.202Z,57.60
2022-10-16T07:20:42.205Z,52.49
2022-10-16T07:21:41.213Z,61.91
2022-10-16T07:22:41.241Z,55.19
2022-10-16T07:23:41.187Z,60.23
2022-10-16T07:24:41.190Z,62.65
2022-10-16T07:25:41.191Z,56.39
2022-10-16T07:26:41.238Z,62.37
2022-10-16T07:27:41.185Z,64.34
2022-10-16T07:28:41.177Z,63.02
2022-10-16T07:29:41.172Z,62.55
2022-10-16T07:30:41.777Z,60.35
2022-10-16T07:31:41.120Z,51.32
2022-10-16T07:32:41.231Z,61.24
2022-10-16T07:33:41.113Z,51.89
2022-10-16T07:34:41.130Z,57.88
2022-10-16T07:35:41.101Z,52.69
2022-10-16T07:37:41.071Z,66.11
2022-10-16T07:38:41.080Z,60.19
2022-10-16T07:39:41.089Z,59.02
2022-10-16T07:40:41.062Z,61.84
2022-10-16T07:41:41.011Z,59.47
2022-10-16T07:42:41.019Z,64.74
2022-10-16T07:43:42.287Z,66.04
2022-10-16T07:44:41.080Z,61.56
2022-10-16T07:45:41.007Z,57.64
2022-10-16T07:46:41.013Z,61.23
2022-10-16T07:47:40.967Z,59.74
2022-10-16T07:48:40.989Z,56.91
2022-10-16T07:49:40.989Z,51.75
2022-10-16T07:50:40.984Z,56.40
2022-10-16T07:51:41.005Z,65.36
2022-10-16T07:52:40.986Z,56.95
2022-10-16T07:53:41.829Z,61.82
2022-10-16T07:54:41.088Z,62.18
2022-10-16T07:55:40.941Z,57.93
2022-10-16T07:56:43.737Z,63.29
2022-10-16T07:57:40.958Z,60.77
2022-10-16T07:58:40.901Z,53.38
2022-10-16T07:59:40.917Z,63.58
2022-10-16T08:00:40.903Z,66.29
2022-10-16T08:01:40.978Z,51.89
2022-10-16T08:02:40.864Z,64.51
2022-10-16T08:03:40.876Z,68.55
2022-10-16T08:04:40.878Z,59.79
2022-10-16T08:05:40.893Z,63.28
2022-10-16T08:06:40.851Z,64.38
2022-10-16T08:07:40.881Z,64.58
2022-10-16T08:08:40.876Z,60.29
2022-10-16T08:09:40.836Z,66.50
2022-10-16T08:10:40.825Z,60.95
2022-10-16T08:11:40.830Z,60.70
2022-10-16T08:12:40.837Z,59.86
2022-10-16T08:13:40.829Z,66.23
2022-10-16T08:14:43.302Z,63.62
2022-10-16T08:15:40.803Z,59.36
2022-10-16T08:16:40.764Z,63.50
2022-10-16T08:17:40.803Z,59.28
2022-10-16T08:18:40.767Z,61.24
2022-10-16T08:19:40.770Z,65.63
2022-10-16T08:20:40.764Z,55.95
2022-10-16T08:21:40.751Z,62.94
2022-10-16T08:22:40.785Z,62.01
2022-10-16T08:23:40.746Z,64.71
2022-10-16T08:24:40.774Z,62.87
2022-10-16T08:25:40.697Z,53.70
2022-10-16T13:03:12.650Z,64.92
2022-10-16T13:04:17.669Z,65.38
2022-10-16T13:05:13.467Z,67.71
2022-10-16T13:06:13.421Z,62.67
2022-10-16T13:31:16.574Z,64.76
2022-10-16T14:27:36.663Z,65.55
2022-10-16T14:28:36.577Z,67.15
2022-10-16T14:29:36.872Z,69.81
2022-10-16T14:30:36.828Z,67.67
2022-10-16T14:31:36.783Z,62.21
2022-10-16T14:32:37.730Z,68.71
2022-10-16T14:33:37.652Z,65.28
2022-10-16T14:34:36.807Z,68.96
2022-10-16T14:35:36.746Z,68.52
2022-10-16T14:36:36.759Z,64.04
2022-10-16T14:37:36.773Z,62.64
2022-10-16T14:38:36.839Z,67.10
2022-10-16T14:39:37.811Z,68.52
2022-10-16T14:40:36.753Z,64.40
2022-10-16T14:41:37.366Z,66.14
2022-10-16T14:42:36.762Z,68.35
2022-10-16T14:43:36.857Z,68.05
2022-10-16T14:44:36.818Z,65.05
2022-10-16T14:45:36.886Z,69.12
2022-10-16T14:46:36.657Z,63.56
2022-10-16T14:47:36.805Z,69.41
2022-10-16T14:48:36.699Z,66.46
2022-10-16T14:49:36.747Z,67.04
2022-10-16T14:50:36.710Z,68.36
2022-10-16T14:51:36.626Z,64.16
2022-10-16T14:52:36.643Z,64.39
2022-10-16T14:53:36.609Z,66.76
2022-10-16T14:54:36.642Z,64.71
2022-10-16T14:55:38.175Z,67.71
2022-10-16T14:56:36.659Z,66.20
2022-10-16T14:57:36.607Z,66.47
2022-10-16T14:58:36.617Z,68.50
2022-10-16T14:59:36.579Z,65.71
2022-10-16T15:00:36.628Z,68.58
2022-10-16T15:01:36.568Z,63.99
2022-10-16T15:02:36.573Z,68.38
2022-10-16T15:03:36.572Z,66.05
2022-10-16T15:04:36.854Z,65.16
2022-10-16T15:05:39.759Z,66.73
2022-10-16T15:06:36.546Z,68.41
2022-10-16T15:07:36.558Z,68.07
2022-10-16T15:08:36.557Z,66.89
2022-10-16T15:09:36.735Z,66.33
2022-10-16T15:10:36.480Z,67.44
2022-10-16T15:11:36.509Z,62.18
2022-10-16T15:12:36.473Z,69.24
2022-10-16T15:13:36.476Z,67.42
2022-10-16T15:14:36.486Z,68.07
2022-10-16T15:15:36.457Z,67.60
2022-10-16T15:16:36.427Z,66.77
2022-10-16T15:17:36.445Z,69.52
2022-10-16T15:18:36.485Z,69.06
2022-10-16T15:19:36.484Z,67.35
2022-10-16T15:20:36.426Z,68.06
2022-10-16T15:21:36.395Z,65.45
2022-10-16T15:22:36.394Z,67.43
2022-10-16T15:23:36.421Z,66.37
2022-10-16T15:24:36.401Z,67.76
2022-10-16T15:25:36.384Z,68.34
2022-10-16T15:26:36.433Z,67.70
2022-10-16T15:27:37.299Z,66.70
2022-10-16T15:28:36.498Z,67.88
2022-10-16T15:29:36.440Z,60.95
2022-10-16T15:30:36.404Z,67.39
2022-10-16T15:31:36.310Z,67.62
2022-10-16T15:32:36.426Z,68.08
2022-10-16T15:33:39.652Z,67.86
2022-10-16T15:34:36.293Z,67.93
2022-10-16T15:35:36.287Z,66.31
2022-10-16T15:36:36.353Z,68.75
2022-10-16T15:37:36.385Z,66.90
2022-10-16T15:38:38.083Z,68.81
2022-10-16T15:39:40.535Z,69.36
2022-10-16T15:40:38.265Z,66.26
2022-10-16T15:41:36.365Z,64.44
2022-10-16T15:42:36.293Z,65.81
2022-10-16T15:43:36.233Z,68.02
2022-10-16T15:44:36.847Z,67.44
2022-10-16T15:45:36.253Z,67.52
2022-10-16T15:46:36.832Z,69.03
2022-10-16T15:47:36.207Z,69.05
2022-10-16T15:48:36.283Z,68.11
2022-10-16T15:49:36.181Z,68.63
2022-10-16T15:50:36.235Z,67.77
2022-10-16T15:51:36.480Z,69.00
2022-10-16T15:52:36.223Z,68.85
2022-10-16T15:53:36.158Z,65.65
2022-10-16T15:54:36.197Z,69.80
2022-10-16T15:55:36.373Z,68.74
2022-10-16T15:56:36.165Z,67.37
2022-10-16T15:57:36.146Z,68.64
2022-10-16T15:58:36.136Z,68.43
2022-10-16T15:59:36.184Z,66.07
2022-10-16T16:00:36.178Z,68.70
2022-10-16T16:01:36.230Z,68.38
2022-10-16T16:02:36.156Z,68.82
2022-10-16T16:03:36.181Z,68.87
2022-10-16T16:04:43.863Z,67.00
2022-10-16T16:05:39.885Z,69.04
2022-10-16T16:06:36.100Z,65.34
2022-10-16T16:07:36.101Z,67.77
2022-10-16T16:08:36.114Z,60.93
2022-10-16T16:09:36.148Z,69.78
2022-10-16T16:10:36.081Z,63.93
2022-10-16T16:11:36.087Z,66.52
2022-10-16T16:12:36.461Z,61.61
2022-10-16T16:13:36.036Z,62.91
2022-10-16T16:14:36.000Z,64.60
2022-10-16T16:15:35.996Z,62.30
2022-10-16T16:16:36.029Z,68.32
2022-10-16T16:17:35.974Z,66.64
2022-10-16T16:18:35.963Z,66.50
2022-10-16T16:19:36.034Z,64.82
2022-10-16T16:20:35.998Z,67.48
2022-10-16T16:21:35.931Z,64.38
2022-10-16T16:22:35.947Z,60.89
2022-10-16T16:23:35.975Z,66.62
2022-10-16T16:24:35.951Z,68.86
2022-10-16T16:25:37.848Z,67.27
2022-10-16T16:26:35.995Z,66.15
2022-10-16T16:27:35.923Z,67.07
2022-10-16T16:28:35.986Z,64.80
2022-10-16T16:29:35.965Z,68.32
2022-10-16T16:30:35.876Z,66.69
2022-10-16T16:31:36.867Z,62.63
2022-10-16T16:32:35.871Z,68.29
2022-10-16T16:33:35.813Z,67.85
2022-10-16T16:34:35.864Z,60.67
2022-10-16T16:35:35.856Z,61.66
2022-10-16T16:36:35.842Z,60.13
2022-10-16T16:37:35.810Z,60.32
2022-10-16T16:38:35.842Z,62.22
2022-10-16T16:39:35.798Z,65.89
2022-10-16T16:40:35.882Z,64.73
2022-10-16T16:41:35.777Z,64.96
2022-10-16T16:42:35.806Z,65.66
2022-10-16T16:43:35.769Z,65.39
2022-10-16T16:44:35.765Z,57.96
2022-10-16T16:45:35.771Z,64.44
2022-10-16T16:46:35.807Z,65.76
2022-10-16T16:47:35.743Z,62.33
2022-10-16T16:48:35.745Z,67.83
2022-10-16T16:49:35.748Z,64.35
2022-10-16T16:50:35.729Z,67.56
2022-10-16T16:51:38.416Z,63.13
2022-10-16T16:52:35.772Z,65.22
2022-10-16T16:53:35.739Z,62.59
2022-10-16T16:54:35.728Z,63.60
2022-10-16T16:55:35.706Z,62.08
2022-10-16T16:56:35.647Z,67.25
2022-10-16T16:57:35.672Z,61.40
2022-10-16T16:58:35.651Z,68.34
2022-10-16T16:59:35.850Z,60.00
2022-10-16T17:01:19.551Z,55.21
2022-10-16T17:02:04.864Z,64.85
2022-10-16T17:03:09.241Z,64.81
2022-10-16T17:03:35.682Z,69.34
2022-10-16T17:04:35.623Z,65.77
2022-10-16T17:05:35.589Z,65.95
2022-10-16T17:06:35.777Z,66.16
2022-10-16T17:07:35.637Z,63.06
2022-10-16T17:08:35.607Z,65.33
2022-10-16T17:09:35.567Z,64.45
2022-10-16T17:10:35.602Z,64.13
2022-10-16T17:11:35.612Z,64.38
2022-10-16T17:12:35.600Z,65.03
2022-10-16T17:13:35.544Z,62.27
2022-10-16T17:14:35.604Z,62.54
2022-10-16T17:15:35.541Z,57.89
2022-10-16T17:16:35.536Z,65.23
2022-10-16T17:17:35.560Z,65.67
2022-10-16T17:18:35.517Z,63.52
2022-10-16T17:19:35.536Z,62.51
2022-10-16T17:20:35.507Z,65.62
2022-10-16T17:21:35.521Z,61.45
2022-10-16T17:22:35.491Z,67.97
2022-10-16T17:23:35.502Z,59.70
2022-10-16T17:24:35.456Z,56.51
2022-10-16T17:25:35.466Z,66.87
2022-10-16T17:26:35.422Z,67.38
2022-10-16T17:27:35.445Z,65.04
2022-10-16T17:28:35.488Z,61.87
2022-10-16T17:29:35.419Z,60.91
2022-10-16T17:30:35.483Z,58.63
2022-10-16T17:31:35.896Z,66.76
2022-10-16T17:32:35.389Z,65.30
2022-10-16T17:33:35.492Z,64.46
2022-10-16T17:34:35.428Z,60.72
2022-10-16T17:35:35.379Z,69.34
2022-10-16T17:36:35.434Z,64.78
2022-10-16T17:37:35.375Z,61.95
2022-10-16T17:38:35.404Z,67.03
2022-10-16T17:39:35.331Z,61.25
2022-10-16T17:40:35.319Z,62.66
2022-10-16T17:41:35.369Z,59.83
2022-10-16T17:42:35.371Z,68.20
2022-10-16T17:43:35.315Z,58.80
2022-10-16T17:44:35.355Z,54.32
2022-10-16T17:45:35.278Z,64.41
2022-10-16T17:46:38.401Z,63.03
2022-10-16T17:47:36.310Z,60.54
2022-10-16T17:48:35.292Z,60.13
2022-10-16T17:49:35.294Z,65.76
2022-10-16T17:50:35.304Z,59.74
2022-10-16T17:51:35.253Z,65.91
2022-10-16T17:52:35.250Z,64.24
2022-10-16T17:53:35.262Z,68.86
2022-10-16T17:54:35.247Z,62.88
2022-10-16T17:55:35.240Z,59.24
2022-10-16T17:56:35.223Z,64.27
2022-10-16T17:57:35.224Z,59.76
2022-10-16T17:58:35.217Z,62.87
2022-10-16T17:59:35.165Z,63.96
2022-10-16T18:00:35.173Z,62.86
2022-10-16T18:01:35.228Z,63.85
2022-10-16T18:02:35.890Z,62.05
2022-10-16T18:03:35.197Z,62.99
2022-10-16T18:04:35.140Z,67.60
2022-10-16T18:05:35.144Z,59.87
2022-10-16T18:06:35.206Z,56.84
2022-10-16T18:07:35.151Z,59.91
2022-10-16T18:08:35.088Z,56.62
2022-10-16T18:09:35.094Z,63.47
2022-10-16T18:10:35.096Z,58.34
2022-10-16T18:11:35.105Z,65.98
2022-10-16T18:12:35.143Z,54.54
2022-10-16T18:13:35.091Z,54.30
2022-10-16T18:14:35.016Z,59.17
2022-10-16T18:15:35.069Z,57.74
2022-10-16T18:16:35.050Z,65.00
2022-10-16T18:17:35.040Z,56.05
2022-10-16T18:18:35.023Z,69.02
2022-10-16T18:19:35.029Z,59.86
2022-10-16T18:20:35.046Z,58.80
2022-10-16T18:21:35.016Z,55.60
2022-10-16T18:23:07.359Z,65.68
2022-10-16T18:23:34.946Z,63.33
2022-10-16T18:24:34.979Z,57.08
2022-10-16T18:25:34.939Z,62.60
2022-10-16T18:26:34.970Z,61.81
2022-10-16T18:27:34.956Z,55.74
2022-10-16T18:28:35.044Z,55.96
2022-10-16T18:29:34.972Z,61.45
2022-10-16T18:30:34.923Z,66.02
2022-10-16T18:31:39.085Z,67.22
2022-10-16T18:32:36.991Z,57.23
2022-10-16T18:33:34.945Z,54.38
2022-10-16T18:34:34.946Z,64.70
2022-10-16T18:35:34.937Z,63.12
2022-10-16T18:36:34.887Z,58.18
2022-10-16T18:37:35.909Z,59.92
2022-10-16T18:38:35.841Z,64.95
2022-10-16T18:39:34.902Z,68.19
2022-10-16T18:40:34.819Z,59.72
2022-10-16T18:41:34.855Z,56.50
2022-10-16T18:42:34.920Z,54.65
2022-10-16T18:43:34.817Z,56.92
2022-10-16T18:44:34.799Z,50.54
2022-10-16T18:45:34.795Z,55.53
2022-10-16T18:46:34.792Z,58.11
2022-10-16T18:47:34.818Z,58.16
2022-10-16T18:48:34.780Z,60.46
2022-10-16T18:49:34.806Z,62.01
2022-10-16T18:50:34.850Z,60.09
2022-10-16T18:51:34.764Z,62.60
2022-10-16T18:52:34.834Z,61.98
2022-10-16T18:53:34.755Z,50.13
2022-10-16T18:54:34.740Z,58.99
2022-10-16T18:55:34.704Z,56.84
2022-10-16T18:56:34.744Z,53.73
2022-10-16T18:57:34.793Z,58.43
2022-10-16T18:58:34.730Z,62.27
2022-10-16T18:59:34.764Z,61.37
2022-10-16T19:00:34.710Z,54.05
2022-10-16T19:01:36.342Z,51.84
2022-10-16T19:03:34.709Z,53.80
2022-10-16T19:04:35.432Z,54.41
2022-10-16T19:05:34.714Z,52.03
2022-10-16T19:06:35.421Z,57.29
2022-10-16T19:07:34.827Z,62.27
2022-10-16T19:08:35.396Z,59.33
2022-10-16T19:09:34.661Z,60.41
2022-10-16T19:10:34.627Z,59.96
2022-10-16T19:11:38.040Z,57.99
2022-10-16T19:12:36.640Z,64.95
2022-10-16T19:13:34.618Z,58.78
2022-10-16T19:17:32.728Z,57.02
2022-10-16T19:18:33.997Z,58.04
2022-10-16T19:19:33.853Z,58.51
2022-10-16T19:20:33.906Z,59.08
2022-10-16T19:21:33.784Z,62.27
2022-10-16T19:22:34.573Z,61.68
2022-10-16T19:23:33.830Z,46.50
2022-10-16T19:24:33.807Z,60.89
2022-10-16T19:25:33.827Z,62.94
2022-10-16T19:26:35.756Z,63.71
2022-10-16T19:27:34.754Z,55.31
2022-10-16T19:28:33.882Z,61.46
2022-10-16T19:29:33.734Z,59.97
2022-10-16T19:30:33.798Z,55.64
2022-10-16T19:31:33.717Z,61.54
2022-10-16T19:32:33.714Z,57.91
2022-10-16T19:33:33.722Z,64.25
2022-10-16T19:34:33.688Z,61.67
2022-10-16T19:35:33.764Z,56.85
2022-10-16T19:36:33.678Z,56.36
2022-10-16T19:37:33.696Z,62.35
2022-10-16T19:38:33.707Z,52.62
2022-10-16T19:39:33.664Z,59.00
2022-10-16T19:40:33.672Z,51.97
2022-10-16T19:41:33.988Z,59.30
2022-10-16T19:42:33.638Z,64.48
2022-10-16T19:43:34.948Z,64.43
2022-10-16T19:44:33.699Z,59.72
2022-10-16T19:45:33.689Z,58.55
2022-10-16T19:46:34.498Z,64.53
2022-10-16T19:47:33.593Z,62.91
2022-10-16T19:48:33.608Z,56.57